Time;durP1;ratioP1;P1;durP2;ratioP2;P2;SDS_P1;SDS_P2;PMS_P1;PMS_P2;Temp;Humidity;BMP_temperature;BMP_pressure;BME280_temperature;BME280_humidity;BME280_pressure;Samples;Min_cycle;Max_cycle;Signal;HPM_P1;HPM_P2
2023/04/04 00:00:32;;;;;;;;;;;;;;;;;;5036701;28;19960;-67
2023/04/04 00:02:58;;;;;;;;;;;;;;;;;;5036419;28;19964;-68
2023/04/04 00:05:25;;;;;;;;;;;;;;;;;;5036638;28;19959;-67
2023/04/04 00:07:51;;;;;;;;;;;;;;;;;;5034795;28;19967;-68
2023/04/04 00:10:17;;;;;;;;;;;;;;;;;;5036446;28;19978;-68
2023/04/04 00:12:43;;;;;;;;;;;;;;;;;;5036210;28;19957;-67
2023/04/04 00:15:10;;;;;;;;;;;;;;;;;;5036167;28;20320;-67
2023/04/04 00:17:35;;;;;;;;;;;;;;;;;;5036727;28;19956;-67
2023/04/04 00:20:03;;;;;;;;;;;;;;;;;;5036385;28;19962;-67
2023/04/04 00:22:28;;;;;;;;;;;;;;;;;;5035520;28;20460;-68
2023/04/04 00:24:54;;;;;;;;;;;;;;;;;;5035984;28;19966;-67
2023/04/04 00:27:20;;;;;;;;;;;;;;;;;;5036187;28;19955;-68
2023/04/04 00:29:47;;;;;;;;;;;;;;;;;;5036045;28;19975;-68
2023/04/04 00:32:12;;;;;;;;;;;;;;;;;;5036308;28;20014;-68
2023/04/04 00:34:38;;;;;;;;;;;;;;;;;;5035760;28;19978;-68
2023/04/04 00:37:06;;;;;;;;;;;;;;;;;;5035735;28;19992;-68
2023/04/04 00:39:32;;;;;;;;;;;;;;;;;;5035994;28;19963;-68
2023/04/04 00:41:58;;;;;;;;;;;;;;;;;;5035509;28;19962;-69
2023/04/04 00:44:24;;;;;;;;;;;;;;;;;;5035612;28;19955;-68
2023/04/04 00:46:50;;;;;;;;;;;;;;;;;;5035591;28;19955;-68
2023/04/04 00:49:16;;;;;;;;;;;;;;;;;;5035550;28;19957;-67
2023/04/04 00:51:42;;;;;;;;;;;;;;;;;;5035421;28;19976;-67
2023/04/04 00:54:07;;;;;;;;;;;;;;;;;;5035412;28;19957;-67
2023/04/04 00:56:33;;;;;;;;;;;;;;;;;;5035403;28;19955;-67
2023/04/04 00:58:59;;;;;;;;;;;;;;;;;;5035623;28;19964;-67
2023/04/04 01:01:25;;;;;;;;;;;;;;;;;;5035278;28;20387;-67
2023/04/04 01:03:51;;;;;;;;;;;;;;;;;;5035248;28;20010;-68
2023/04/04 01:06:17;;;;;;;;;;;;;;;;;;5035240;28;19962;-67
2023/04/04 01:08:43;;;;;;;;;;;;;;;;;;5035434;28;20043;-69
2023/04/04 01:11:09;;;;;;;;;;;;;;;;;;5035078;28;20014;-68
2023/04/04 01:13:35;;;;;;;;;;;;;;;;;;5035663;28;19959;-67
2023/04/04 01:16:01;;;;;;;;;;;;;;;;;;5035312;28;20009;-68
2023/04/04 01:18:27;;;;;;;;;;;;;;;;;;5035523;28;19956;-67
2023/04/04 01:20:53;;;;;;;;;;;;;;;;;;5034739;28;19988;-69
2023/04/04 01:23:19;;;;;;;;;;;;;;;;;;5035155;28;19956;-67
2023/04/04 01:25:45;;;;;;;;;;;;;;;;;;5034843;28;20110;-68
2023/04/04 01:28:11;;;;;;;;;;;;;;;;;;5035033;28;20055;-67
2023/04/04 01:30:36;;;;;;;;;;;;;;;;;;5034624;28;20435;-68
2023/04/04 01:33:02;;;;;;;;;;;;;;;;;;5035012;28;19955;-69
2023/04/04 01:35:29;;;;;;;;;;;;;;;;;;5034618;28;20390;-68
2023/04/04 01:37:55;;;;;;;;;;;;;;;;;;5034946;28;20387;-67
2023/04/04 01:40:21;;;;;;;;;;;;;;;;;;5034828;28;19998;-68
2023/04/04 01:42:48;;;;;;;;;;;;;;;;;;5035035;28;19960;-66
2023/04/04 01:45:13;;;;;;;;;;;;;;;;;;5034758;28;19955;-67
2023/04/04 01:47:39;;;;;;;;;;;;;;;;;;5034434;28;19960;-67
2023/04/04 01:50:05;;;;;;;;;;;;;;;;;;5034566;28;20008;-69
2023/04/04 01:52:31;;;;;;;;;;;;;;;;;;5034102;28;19971;-69
2023/04/04 01:54:57;;;;;;;;;;;;;;;;;;5034864;28;19955;-68
2023/04/04 01:57:23;;;;;;;;;;;;;;;;;;5034283;28;19956;-67
2023/04/04 01:59:49;;;;;;;;;;;;;;;;;;5034226;28;20321;-68
2023/04/04 02:02:15;;;;;;;;;;;;;;;;;;5034172;28;19956;-67
2023/04/04 02:04:42;;;;;;;;;;;;;;;;;;5034406;28;19963;-67
2023/04/04 02:07:07;;;;;;;;;;;;;;;;;;5034090;28;20319;-68
2023/04/04 02:09:33;;;;;;;;;;;;;;;;;;5034068;28;19956;-68
2023/04/04 02:11:59;;;;;;;;;;;;;;;;;;5033982;28;19995;-67
2023/04/04 02:14:25;;;;;;;;;;;;;;;;;;5034307;28;19961;-67
2023/04/04 02:16:51;;;;;;;;;;;;;;;;;;5033927;28;19956;-67
2023/04/04 02:19:17;;;;;;;;;;;;;;;;;;5033929;28;19955;-69
2023/04/04 02:21:43;;;;;;;;;;;;;;;;;;5033834;28;19996;-69
2023/04/04 02:24:09;;;;;;;;;;;;;;;;;;5033838;28;19960;-68
2023/04/04 02:26:35;;;;;;;;;;;;;;;;;;5034041;28;19964;-67
2023/04/04 02:29:01;;;;;;;;;;;;;;;;;;5033947;28;19971;-67
2023/04/04 02:31:27;;;;;;;;;;;;;;;;;;5033703;28;19976;-69
2023/04/04 02:33:53;;;;;;;;;;;;;;;;;;5033725;28;19978;-69
2023/04/04 02:36:19;;;;;;;;;;;;;;;;;;5033948;28;19963;-68
2023/04/04 02:38:45;;;;;;;;;;;;;;;;;;5033661;28;20420;-67
2023/04/04 02:41:11;;;;;;;;;;;;;;;;;;5033634;28;19991;-68
2023/04/04 02:43:37;;;;;;;;;;;;;;;;;;5034152;28;20425;-67
2023/04/04 02:46:02;;;;;;;;;;;;;;;;;;5033855;28;20014;-68
2023/04/04 02:48:29;;;;;;;;;;;;;;;;;;5034146;28;20425;-68
2023/04/04 02:50:54;;;;;;;;;;;;;;;;;;5033514;28;20044;-67
2023/04/04 02:53:21;;;;;;;;;;;;;;;;;;5033570;28;20054;-67
2023/04/04 02:55:47;;;;;;;;;;;;;;;;;;5033827;28;20309;-67
2023/04/04 02:58:13;;;;;;;;;;;;;;;;;;5033530;28;19987;-67
2023/04/04 03:00:39;;;;;;;;;;;;;;;;;;5033749;28;20356;-68
2023/04/04 03:03:05;;;;;;;;;;;;;;;;;;5033475;28;19986;-68
2023/04/04 03:05:31;;;;;;;;;;;;;;;;;;5035427;28;19963;-67
2023/04/04 03:07:57;;;;;;;;;;;;;;;;;;5037473;28;20403;-68
2023/04/04 03:10:23;;;;;;;;;;;;;;;;;;5038107;28;20017;-67
2023/04/04 03:12:49;;;;;;;;;;;;;;;;;;5037313;28;19962;-67
2023/04/04 03:15:15;;;;;;;;;;;;;;;;;;5037588;28;19986;-68
2023/04/04 03:17:41;;;;;;;;;;;;;;;;;;5037224;28;19955;-68
2023/04/04 03:20:07;;;;;;;;;;;;;;;;;;5037227;28;20004;-68
2023/04/04 03:22:33;;;;;;;;;;;;;;;;;;5036772;28;20484;-69
2023/04/04 03:24:59;;;;;;;;;;;;;;;;;;5037132;28;20006;-67
2023/04/04 03:27:25;;;;;;;;;;;;;;;;;;5037052;28;19956;-67
2023/04/04 03:29:51;;;;;;;;;;;;;;;;;;5036974;28;19972;-68
2023/04/04 03:32:17;;;;;;;;;;;;;;;;;;5037235;28;20417;-69
2023/04/04 03:34:43;;;;;;;;;;;;;;;;;;5037787;28;19979;-68
2023/04/04 03:37:09;;;;;;;;;;;;;;;;;;5036885;28;20410;-67
2023/04/04 03:39:35;;;;;;;;;;;;;;;;;;5037120;28;19959;-67
2023/04/04 03:42:01;;;;;;;;;;;;;;;;;;5036792;28;19954;-67
2023/04/04 03:44:27;;;;;;;;;;;;;;;;;;5037012;28;19963;-67
2023/04/04 03:46:53;;;;;;;;;;;;;;;;;;5036995;28;19959;-67
2023/04/04 03:49:19;;;;;;;;;;;;;;;;;;5036721;28;20010;-68
2023/04/04 03:51:44;;;;;;;;;;;;;;;;;;5036579;28;20079;-67
2023/04/04 03:54:10;;;;;;;;;;;;;;;;;;5036862;28;20006;-67
2023/04/04 03:56:36;;;;;;;;;;;;;;;;;;5036530;28;19970;-67
2023/04/04 03:59:03;;;;;;;;;;;;;;;;;;5036524;28;19955;-69
2023/04/04 04:01:29;;;;;;;;;;;;;;;;;;5036975;28;19989;-67
2023/04/04 04:03:55;;;;;;;;;;;;;;;;;;5036405;28;19967;-68
2023/04/04 04:06:21;;;;;;;;;;;;;;;;;;5036619;28;19955;-68
2023/04/04 04:08:47;;;;;;;;;;;;;;;;;;5036288;28;19999;-69
2023/04/04 04:11:13;;;;;;;;;;;;;;;;;;5036213;28;20463;-68
2023/04/04 04:13:39;;;;;;;;;;;;;;;;;;5036194;28;19993;-67
2023/04/04 04:16:05;;;;;;;;;;;;;;;;;;5036171;28;20397;-67
2023/04/04 04:18:31;;;;;;;;;;;;;;;;;;5036404;28;20040;-69
2023/04/04 04:21:02;;;;;;;;;;;;;;;;;;5036069;28;20420;-67
2023/04/04 04:23:28;;;;;;;;;;;;;;;;;;5036029;28;19956;-69
2023/04/04 04:25:54;;;;;;;;;;;;;;;;;;5036026;28;19967;-69
2023/04/04 04:28:20;;;;;;;;;;;;;;;;;;5036218;28;19956;-67
2023/04/04 04:30:46;;;;;;;;;;;;;;;;;;5035755;28;19978;-68
2023/04/04 04:33:12;;;;;;;;;;;;;;;;;;5035857;28;20418;-68
2023/04/04 04:35:38;;;;;;;;;;;;;;;;;;5036097;28;20054;-68
2023/04/04 04:38:05;;;;;;;;;;;;;;;;;;5035760;28;19967;-68
2023/04/04 04:40:31;;;;;;;;;;;;;;;;;;5035766;28;20010;-67
2023/04/04 04:42:57;;;;;;;;;;;;;;;;;;5035668;28;19961;-68
2023/04/04 04:45:23;;;;;;;;;;;;;;;;;;5035893;28;19959;-69
2023/04/04 04:47:49;;;;;;;;;;;;;;;;;;5035620;28;19957;-67
2023/04/04 04:50:16;;;;;;;;;;;;;;;;;;5036077;28;20078;-68
2023/04/04 04:52:42;;;;;;;;;;;;;;;;;;5035497;28;20335;-67
2023/04/04 04:55:09;;;;;;;;;;;;;;;;;;5036000;28;19957;-68
2023/04/04 04:57:35;;;;;;;;;;;;;;;;;;5035753;28;19960;-67
2023/04/04 05:00:02;;;;;;;;;;;;;;;;;;5035388;28;20039;-68
2023/04/04 05:02:28;;;;;;;;;;;;;;;;;;5035317;28;19956;-68
2023/04/04 05:04:54;;;;;;;;;;;;;;;;;;5035276;28;20006;-69
2023/04/04 05:07:20;;;;;;;;;;;;;;;;;;5035554;28;19961;-68
2023/04/04 05:15:15;;;;;;;;;;;;;;;;;;5035125;28;20009;-69
2023/04/04 05:17:41;;;;;;;;;;;;;;;;;;5035652;28;19960;-67
2023/04/04 05:20:07;;;;;;;;;;;;;;;;;;5035002;28;20056;-68
2023/04/04 05:22:33;;;;;;;;;;;;;;;;;;5034536;28;20082;-69
2023/04/04 05:24:59;;;;;;;;;;;;;;;;;;5035144;28;19995;-68
2023/04/04 05:27:25;;;;;;;;;;;;;;;;;;5033983;28;20055;-67
2023/04/04 05:29:51;;;;;;;;;;;;;;;;;;5034954;28;19972;-67
2023/04/04 05:32:17;;;;;;;;;;;;;;;;;;5033387;28;20341;-69
2023/04/04 05:34:43;;;;;;;;;;;;;;;;;;5035261;28;19980;-68
2023/04/04 05:37:09;;;;;;;;;;;;;;;;;;5034709;28;20327;-69
2023/04/04 05:39:36;;;;;;;;;;;;;;;;;;5035213;28;20051;-68
2023/04/04 05:42:02;;;;;;;;;;;;;;;;;;5034808;28;19967;-66
2023/04/04 05:44:28;;;;;;;;;;;;;;;;;;5034485;28;19956;-67
2023/04/04 05:46:54;;;;;;;;;;;;;;;;;;5034507;28;20006;-68
2023/04/04 05:49:20;;;;;;;;;;;;;;;;;;5034710;28;19978;-66
2023/04/04 05:51:46;;;;;;;;;;;;;;;;;;5034597;28;20318;-68
2023/04/04 05:54:12;;;;;;;;;;;;;;;;;;5034608;28;19964;-68
2023/04/04 05:56:38;;;;;;;;;;;;;;;;;;5034755;28;19960;-67
2023/04/04 05:59:03;;;;;;;;;;;;;;;;;;5034233;28;19985;-66
2023/04/04 06:01:30;;;;;;;;;;;;;;;;;;5034728;28;19956;-68
2023/04/04 06:03:56;;;;;;;;;;;;;;;;;;5034425;28;19963;-67
2023/04/04 06:06:21;;;;;;;;;;;;;;;;;;5034110;28;19955;-68
2023/04/04 06:08:47;;;;;;;;;;;;;;;;;;5034613;28;19956;-70
2023/04/04 06:11:13;;;;;;;;;;;;;;;;;;5034000;28;19976;-67
2023/04/04 06:13:39;;;;;;;;;;;;;;;;;;5034033;28;20491;-68
2023/04/04 06:16:05;;;;;;;;;;;;;;;;;;5033993;28;19960;-67
2023/04/04 06:18:31;;;;;;;;;;;;;;;;;;5033939;28;20412;-67
2023/04/04 06:20:57;;;;;;;;;;;;;;;;;;5033958;28;19992;-66
2023/04/04 06:23:23;;;;;;;;;;;;;;;;;;5033886;28;20488;-68
2023/04/04 06:25:48;;;;;;;;;;;;;;;;;;5033888;28;20006;-67
2023/04/04 06:28:16;;;;;;;;;;;;;;;;;;5033783;28;19959;-69
2023/04/04 06:30:42;;;;;;;;;;;;;;;;;;5033642;28;20030;-68
2023/04/04 06:33:08;;;;;;;;;;;;;;;;;;5034028;28;19994;-66
2023/04/04 06:35:34;;;;;;;;;;;;;;;;;;5033974;28;20420;-67
2023/04/04 06:38:01;;;;;;;;;;;;;;;;;;5034511;28;20046;-68
2023/04/04 06:40:27;;;;;;;;;;;;;;;;;;5033509;28;20424;-67
2023/04/04 06:42:57;;;;;;;;;;;;;;;;;;5033993;28;20360;-67
2023/04/04 06:45:24;;;;;;;;;;;;;;;;;;5033696;28;20023;-68
2023/04/04 06:47:52;;;;;;;;;;;;;;;;;;5034278;28;20317;-67
2023/04/04 06:50:18;;;;;;;;;;;;;;;;;;5033505;28;19956;-68
2023/04/04 06:52:44;;;;;;;;;;;;;;;;;;5033585;28;20328;-68
2023/04/04 06:55:09;;;;;;;;;;;;;;;;;;5033559;28;19956;-68
2023/04/04 06:57:37;;;;;;;;;;;;;;;;;;5033791;28;19969;-68
2023/04/04 07:00:03;;;;;;;;;;;;;;;;;;5033508;28;19963;-69
2023/04/04 07:02:29;;;;;;;;;;;;;;;;;;5033495;28;19955;-68
2023/04/04 07:04:55;;;;;;;;;;;;;;;;;;5033761;28;19959;-68
2023/04/04 07:07:20;;;;;;;;;;;;;;;;;;5034073;28;20431;-68
2023/04/04 07:09:46;;;;;;;;;;;;;;;;;;5033424;28;20402;-70
2023/04/04 07:12:12;;;;;;;;;;;;;;;;;;5033621;28;19976;-68
2023/04/04 07:14:38;;;;;;;;;;;;;;;;;;5034440;28;20425;-68
2023/04/04 07:17:04;;;;;;;;;;;;;;;;;;5033400;28;19963;-68
2023/04/04 07:19:30;;;;;;;;;;;;;;;;;;5033333;28;20538;-69
2023/04/04 07:21:56;;;;;;;;;;;;;;;;;;5033126;28;20034;-69
2023/04/04 07:24:22;;;;;;;;;;;;;;;;;;5032713;28;19963;-71
2023/04/04 07:26:48;;;;;;;;;;;;;;;;;;5032684;28;19963;-71
2023/04/04 07:29:13;;;;;;;;;;;;;;;;;;5048694;28;20026;-70
2023/04/04 07:31:39;;;;;;;;;;;;;;;;;;5042089;28;20037;-69
2023/04/04 07:34:06;;;;;;;;;;;;;;;;;;5036965;28;20006;-67
2023/04/04 07:36:32;;;;;;;;;;;;;;;;;;5037685;28;19960;-68
2023/04/04 07:38:58;;;;;;;;;;;;;;;;;;5050286;28;20329;-68
2023/04/04 07:41:27;;;;;;;;;;;;;;;;;;5032777;28;20058;-68
2023/04/04 07:43:53;;;;;;;;;;;;;;;;;;5034005;28;20006;-68
2023/04/04 07:46:19;;;;;;;;;;;;;;;;;;5052880;28;19956;-69
2023/04/04 07:48:45;;;;;;;;;;;;;;;;;;5043641;28;19971;-69
2023/04/04 07:51:11;;;;;;;;;;;;;;;;;;5042632;28;20038;-69
2023/04/04 07:53:37;;;;;;;;;;;;;;;;;;5037872;28;20349;-71
2023/04/04 07:56:05;;;;;;;;;;;;;;;;;;5039349;28;19969;-70
2023/04/04 07:58:31;;;;;;;;;;;;;;;;;;5038688;28;20416;-70
2023/04/04 08:00:57;;;;;;;;;;;;;;;;;;5035983;28;19971;-69
2023/04/04 08:03:24;;;;;;;;;;;;;;;;;;5036580;28;20016;-70
2023/04/04 08:05:50;;;;;;;;;;;;;;;;;;5036353;28;20047;-71
2023/04/04 08:08:16;;;;;;;;;;;;;;;;;;5047953;28;20477;-71
2023/04/04 08:10:42;;;;;;;;;;;;;;;;;;5056070;28;19972;-70
2023/04/04 08:13:08;;;;;;;;;;;;;;;;;;5056146;28;20008;-70
2023/04/04 08:15:35;;;;;;;;;;;;;;;;;;5056638;28;19956;-71
2023/04/04 08:18:01;;;;;;;;;;;;;;;;;;5056408;28;20047;-72
2023/04/04 08:20:27;;;;;;;;;;;;;;;;;;5052046;28;19984;-69
2023/04/04 08:22:53;;;;;;;;;;;;;;;;;;5054725;28;19971;-72
2023/04/04 08:25:19;;;;;;;;;;;;;;;;;;5053704;28;19986;-70
2023/04/04 08:27:45;;;;;;;;;;;;;;;;;;5047882;28;20020;-72
2023/04/04 08:30:11;;;;;;;;;;;;;;;;;;5054393;28;19979;-70
2023/04/04 08:32:37;;;;;;;;;;;;;;;;;;5051383;28;19974;-70
2023/04/04 08:35:03;;;;;;;;;;;;;;;;;;5054642;28;20363;-69
2023/04/04 08:37:29;;;;;;;;;;;;;;;;;;5056368;28;19965;-68
2023/04/04 08:39:55;;;;;;;;;;;;;;;;;;5049097;28;19965;-73
2023/04/04 08:42:22;;;;;;;;;;;;;;;;;;5054314;28;19963;-70
2023/04/04 08:44:48;;;;;;;;;;;;;;;;;;5042198;28;20329;-71
2023/04/04 08:47:15;;;;;;;;;;;;;;;;;;5036171;28;19975;-71
2023/04/04 08:49:41;;;;;;;;;;;;;;;;;;5038281;28;20481;-72
2023/04/04 08:52:07;;;;;;;;;;;;;;;;;;5044694;28;19978;-74
2023/04/04 08:54:33;;;;;;;;;;;;;;;;;;5055728;28;19959;-72
2023/04/04 08:56:59;;;;;;;;;;;;;;;;;;5043163;28;19959;-69
2023/04/04 08:59:24;;;;;;;;;;;;;;;;;;5035588;28;20070;-70
2023/04/04 09:01:52;;;;;;;;;;;;;;;;;;5037139;28;19966;-70
2023/04/04 09:04:18;;;;;;;;;;;;;;;;;;5045220;28;19963;-69
2023/04/04 09:06:44;;;;;;;;;;;;;;;;;;5047241;28;19967;-69
2023/04/04 09:09:10;;;;;;;;;;;;;;;;;;5055080;28;19971;-70
2023/04/04 09:11:36;;;;;;;;;;;;;;;;;;5055048;28;19975;-70
2023/04/04 09:14:03;;;;;;;;;;;;;;;;;;5055555;28;20383;-69
2023/04/04 09:16:29;;;;;;;;;;;;;;;;;;5053811;28;19963;-70
2023/04/04 09:18:55;;;;;;;;;;;;;;;;;;5054263;28;19966;-69
2023/04/04 09:21:21;;;;;;;;;;;;;;;;;;5051951;28;19992;-70
2023/04/04 09:23:47;;;;;;;;;;;;;;;;;;5037679;28;19960;-69
2023/04/04 09:26:12;;;;;;;;;;;;;;;;;;5035748;28;20414;-68
2023/04/04 09:28:38;;;;;;;;;;;;;;;;;;5034729;28;19983;-69
2023/04/04 09:31:04;;;;;;;;;;;;;;;;;;5039343;28;20066;-69
2023/04/04 09:33:30;;;;;;;;;;;;;;;;;;5043541;28;19958;-70
2023/04/04 09:35:57;;;;;;;;;;;;;;;;;;5055161;28;19994;-70
2023/04/04 09:38:23;;;;;;;;;;;;;;;;;;5054583;28;20355;-70
2023/04/04 09:40:49;;;;;;;;;;;;;;;;;;5054546;28;20043;-70
2023/04/04 09:43:15;;;;;;;;;;;;;;;;;;5054807;28;19987;-68
2023/04/04 09:45:41;;;;;;;;;;;;;;;;;;5054465;28;20430;-69
2023/04/04 09:48:08;;;;;;;;;;;;;;;;;;5054678;28;19981;-68
2023/04/04 09:50:34;;;;;;;;;;;;;;;;;;5054283;28;19956;-70
2023/04/04 09:53:00;;;;;;;;;;;;;;;;;;5048977;28;20324;-67
2023/04/04 09:55:26;;;;;;;;;;;;;;;;;;5034890;28;19958;-68
2023/04/04 09:57:52;;;;;;;;;;;;;;;;;;5034291;28;19955;-68
2023/04/04 10:00:17;;;;;;;;;;;;;;;;;;5034505;28;20042;-68
2023/04/04 10:02:44;;;;;;;;;;;;;;;;;;5046633;28;19965;-69
2023/04/04 10:05:10;;;;;;;;;;;;;;;;;;5051377;28;20005;-68
2023/04/04 10:07:36;;;;;;;;;;;;;;;;;;5038936;28;19955;-68
2023/04/04 10:10:02;;;;;;;;;;;;;;;;;;5045610;28;19974;-69
2023/04/04 10:12:28;;;;;;;;;;;;;;;;;;5033858;28;19978;-72
2023/04/04 10:14:54;;;;;;;;;;;;;;;;;;5037498;28;20470;-67
2023/04/04 10:17:20;;;;;;;;;;;;;;;;;;5047412;28;20001;-69
2023/04/04 10:19:46;;;;;;;;;;;;;;;;;;5043813;28;20343;-70
2023/04/04 10:22:12;;;;;;;;;;;;;;;;;;5048451;28;20089;-68
2023/04/04 10:24:40;;;;;;;;;;;;;;;;;;5049549;28;21426;-68
2023/04/04 10:27:06;;;;;;;;;;;;;;;;;;5045636;28;20005;-67
2023/04/04 10:29:32;;;;;;;;;;;;;;;;;;5037083;28;19980;-67
2023/04/04 10:31:59;;;;;;;;;;;;;;;;;;5033770;28;19982;-67
2023/04/04 10:34:25;;;;;;;;;;;;;;;;;;5034043;28;19959;-68
2023/04/04 10:36:51;;;;;;;;;;;;;;;;;;5033759;28;20447;-67
2023/04/04 10:39:17;;;;;;;;;;;;;;;;;;5034274;28;19955;-67
2023/04/04 10:41:43;;;;;;;;;;;;;;;;;;5033950;28;19956;-67
2023/04/04 10:44:09;;;;;;;;;;;;;;;;;;5033944;28;20442;-67
2023/04/04 10:46:35;;;;;;;;;;;;;;;;;;5033629;28;19965;-67
2023/04/04 10:49:01;;;;;;;;;;;;;;;;;;5033631;28;19955;-68
2023/04/04 10:51:27;;;;;;;;;;;;;;;;;;5033506;28;19976;-66
2023/04/04 10:53:52;;;;;;;;;;;;;;;;;;5034096;28;20403;-67
2023/04/04 10:56:18;;;;;;;;;;;;;;;;;;5033560;28;20332;-67
2023/04/04 10:58:44;;;;;;;;;;;;;;;;;;5033526;28;19955;-67
2023/04/04 11:01:10;;;;;;;;;;;;;;;;;;5033836;28;19982;-67
2023/04/04 11:03:36;;;;;;;;;;;;;;;;;;5033441;28;19955;-68
2023/04/04 11:06:03;;;;;;;;;;;;;;;;;;5033520;28;19957;-67
2023/04/04 11:08:29;;;;;;;;;;;;;;;;;;5033979;28;19955;-67
2023/04/04 11:10:56;;;;;;;;;;;;;;;;;;5033358;28;19979;-67
2023/04/04 11:13:22;;;;;;;;;;;;;;;;;;5033372;28;19962;-67
2023/04/04 11:15:48;;;;;;;;;;;;;;;;;;5033242;28;19956;-66
2023/04/04 11:18:14;;;;;;;;;;;;;;;;;;5033850;28;20316;-66
2023/04/04 11:20:44;;;;;;;;;;;;;;;;;;5032992;28;19996;-66
2023/04/04 11:23:10;;;;;;;;;;;;;;;;;;5033773;28;19956;-67
2023/04/04 11:25:36;;;;;;;;;;;;;;;;;;5033957;28;19966;-67
2023/04/04 11:28:02;;;;;;;;;;;;;;;;;;5037173;28;19983;-66
2023/04/04 11:30:28;;;;;;;;;;;;;;;;;;5036896;28;20454;-66
2023/04/04 11:32:54;;;;;;;;;;;;;;;;;;5037578;28;20042;-67
2023/04/04 11:35:21;;;;;;;;;;;;;;;;;;5036854;28;19957;-67
2023/04/04 11:37:47;;;;;;;;;;;;;;;;;;5037468;28;19955;-67
2023/04/04 11:40:13;;;;;;;;;;;;;;;;;;5036784;28;20001;-66
2023/04/04 11:42:39;;;;;;;;;;;;;;;;;;5036813;28;19961;-67
2023/04/04 11:45:05;;;;;;;;;;;;;;;;;;5037102;28;19955;-67
2023/04/04 11:47:31;;;;;;;;;;;;;;;;;;5036631;28;20436;-67
2023/04/04 11:49:57;;;;;;;;;;;;;;;;;;5037155;28;19955;-67
2023/04/04 11:52:24;;;;;;;;;;;;;;;;;;5037374;28;19991;-66
2023/04/04 11:54:50;;;;;;;;;;;;;;;;;;5036876;28;19956;-67
2023/04/04 11:57:16;;;;;;;;;;;;;;;;;;5037121;28;19956;-67
2023/04/04 11:59:42;;;;;;;;;;;;;;;;;;5036518;28;19962;-67
2023/04/04 12:02:08;;;;;;;;;;;;;;;;;;5036496;28;20392;-66
2023/04/04 12:04:33;;;;;;;;;;;;;;;;;;5036708;28;19960;-67
2023/04/04 12:06:59;;;;;;;;;;;;;;;;;;5036411;28;19999;-67
2023/04/04 12:09:25;;;;;;;;;;;;;;;;;;5036364;28;20417;-66
2023/04/04 12:11:51;;;;;;;;;;;;;;;;;;5036254;28;19976;-67
2023/04/04 12:14:17;;;;;;;;;;;;;;;;;;5036539;28;19956;-67
2023/04/04 12:16:43;;;;;;;;;;;;;;;;;;5036293;28;19955;-66
2023/04/04 12:19:09;;;;;;;;;;;;;;;;;;5036201;28;19963;-67
2023/04/04 12:21:35;;;;;;;;;;;;;;;;;;5035958;28;20042;-67
2023/04/04 12:24:01;;;;;;;;;;;;;;;;;;5036358;28;19964;-67
2023/04/04 12:26:31;;;;;;;;;;;;;;;;;;5036264;28;20059;-67
2023/04/04 12:28:58;;;;;;;;;;;;;;;;;;5035911;28;19972;-66
2023/04/04 12:31:24;;;;;;;;;;;;;;;;;;5036223;28;20029;-67
2023/04/04 12:33:50;;;;;;;;;;;;;;;;;;5035928;28;19960;-68
2023/04/04 12:36:16;;;;;;;;;;;;;;;;;;5035557;28;19957;-67
2023/04/04 12:38:42;;;;;;;;;;;;;;;;;;5036027;28;19960;-66
2023/04/04 12:41:08;;;;;;;;;;;;;;;;;;5035776;28;19963;-66
2023/04/04 12:43:35;;;;;;;;;;;;;;;;;;5035719;28;19999;-66
2023/04/04 12:46:02;;;;;;;;;;;;;;;;;;5035944;28;19956;-66
2023/04/04 12:48:28;;;;;;;;;;;;;;;;;;5035639;28;19963;-66
2023/04/04 12:50:55;;;;;;;;;;;;;;;;;;5035504;28;19984;-66
2023/04/04 12:53:21;;;;;;;;;;;;;;;;;;5035574;28;20043;-66
2023/04/04 12:55:47;;;;;;;;;;;;;;;;;;5034222;28;19994;-67
2023/04/04 12:58:13;;;;;;;;;;;;;;;;;;5036037;28;19955;-67
2023/04/04 13:00:39;;;;;;;;;;;;;;;;;;5035706;28;20405;-67
2023/04/04 13:03:05;;;;;;;;;;;;;;;;;;5035618;28;20007;-67
2023/04/04 13:05:34;;;;;;;;;;;;;;;;;;5035305;28;19962;-67
2023/04/04 13:08:00;;;;;;;;;;;;;;;;;;5035297;28;20047;-67
2023/04/04 13:10:26;;;;;;;;;;;;;;;;;;5035450;28;20069;-69
2023/04/04 13:12:52;;;;;;;;;;;;;;;;;;5033803;28;19989;-67
2023/04/04 13:15:18;;;;;;;;;;;;;;;;;;5035348;28;20037;-68
2023/04/04 13:17:44;;;;;;;;;;;;;;;;;;5034727;28;19956;-67
2023/04/04 13:20:10;;;;;;;;;;;;;;;;;;5034943;28;19963;-66
2023/04/04 13:22:36;;;;;;;;;;;;;;;;;;5034497;28;19992;-68
2023/04/04 13:25:02;;;;;;;;;;;;;;;;;;5035060;28;19956;-67
2023/04/04 13:27:28;;;;;;;;;;;;;;;;;;5034767;28;20407;-67
2023/04/04 13:29:53;;;;;;;;;;;;;;;;;;5034896;28;19982;-67
2023/04/04 13:32:19;;;;;;;;;;;;;;;;;;5035243;28;20031;-67
2023/04/04 13:34:45;;;;;;;;;;;;;;;;;;5034875;28;20008;-67
2023/04/04 13:37:11;;;;;;;;;;;;;;;;;;5034585;28;20300;-66
2023/04/04 13:39:37;;;;;;;;;;;;;;;;;;5034600;28;19994;-66
2023/04/04 13:42:03;;;;;;;;;;;;;;;;;;5035098;28;20308;-66
2023/04/04 13:44:30;;;;;;;;;;;;;;;;;;5034805;28;19995;-67
2023/04/04 13:46:56;;;;;;;;;;;;;;;;;;5032940;28;20476;-67
2023/04/04 13:49:22;;;;;;;;;;;;;;;;;;5034307;28;19994;-67
2023/04/04 13:51:47;;;;;;;;;;;;;;;;;;5034244;28;19981;-66
2023/04/04 13:54:13;;;;;;;;;;;;;;;;;;5034648;28;20404;-66
2023/04/04 13:56:39;;;;;;;;;;;;;;;;;;5034386;28;19955;-66
2023/04/04 13:59:05;;;;;;;;;;;;;;;;;;5034347;28;19959;-68
2023/04/04 14:01:31;;;;;;;;;;;;;;;;;;5034559;28;19957;-67
2023/04/04 14:03:57;;;;;;;;;;;;;;;;;;5034263;28;20412;-66
2023/04/04 14:06:23;;;;;;;;;;;;;;;;;;5034471;28;19964;-66
2023/04/04 14:08:49;;;;;;;;;;;;;;;;;;5034746;28;19955;-67
2023/04/04 14:11:15;;;;;;;;;;;;;;;;;;5034101;28;19985;-67
2023/04/04 14:13:41;;;;;;;;;;;;;;;;;;5034135;28;19954;-67
2023/04/04 14:16:07;;;;;;;;;;;;;;;;;;5034357;28;19961;-67
2023/04/04 14:18:33;;;;;;;;;;;;;;;;;;5034302;28;20416;-67
2023/04/04 14:20:59;;;;;;;;;;;;;;;;;;5033979;28;19998;-66
2023/04/04 14:23:25;;;;;;;;;;;;;;;;;;5034215;28;19960;-66
2023/04/04 14:25:51;;;;;;;;;;;;;;;;;;5032658;28;20442;-67
2023/04/04 14:28:17;;;;;;;;;;;;;;;;;;5034447;28;19955;-67
2023/04/04 14:30:43;;;;;;;;;;;;;;;;;;5033711;28;19972;-66
2023/04/04 14:33:09;;;;;;;;;;;;;;;;;;5034388;28;19957;-67
2023/04/04 14:35:35;;;;;;;;;;;;;;;;;;5033736;28;19964;-66
2023/04/04 14:38:01;;;;;;;;;;;;;;;;;;5034028;28;19956;-67
2023/04/04 14:40:27;;;;;;;;;;;;;;;;;;5033737;28;20293;-67
2023/04/04 14:42:53;;;;;;;;;;;;;;;;;;5033669;28;19962;-66
2023/04/04 14:45:19;;;;;;;;;;;;;;;;;;5033625;28;20001;-67
2023/04/04 14:47:45;;;;;;;;;;;;;;;;;;5033655;28;19960;-66
2023/04/04 14:50:11;;;;;;;;;;;;;;;;;;5033911;28;19956;-67
2023/04/04 14:52:37;;;;;;;;;;;;;;;;;;5033499;28;20025;-66
2023/04/04 14:55:03;;;;;;;;;;;;;;;;;;5034422;28;20397;-67
2023/04/04 14:57:29;;;;;;;;;;;;;;;;;;5033556;28;20050;-67
2023/04/04 14:59:55;;;;;;;;;;;;;;;;;;5035065;28;20435;-67
2023/04/04 15:02:21;;;;;;;;;;;;;;;;;;5037609;28;19955;-67
2023/04/04 15:04:46;;;;;;;;;;;;;;;;;;5037564;28;19957;-66
2023/04/04 15:07:12;;;;;;;;;;;;;;;;;;5037807;28;19956;-67
2023/04/04 15:09:38;;;;;;;;;;;;;;;;;;5037473;28;20400;-66
2023/04/04 15:12:04;;;;;;;;;;;;;;;;;;5037416;28;20096;-66
2023/04/04 15:14:31;;;;;;;;;;;;;;;;;;5036151;28;19960;-67
2023/04/04 15:16:57;;;;;;;;;;;;;;;;;;5037736;28;20442;-68
2023/04/04 15:19:23;;;;;;;;;;;;;;;;;;5037279;28;20046;-66
2023/04/04 15:21:49;;;;;;;;;;;;;;;;;;5037082;28;19991;-66
2023/04/04 15:24:15;;;;;;;;;;;;;;;;;;5037125;28;20124;-66
2023/04/04 15:26:41;;;;;;;;;;;;;;;;;;5037153;28;19956;-67
2023/04/04 15:29:07;;;;;;;;;;;;;;;;;;5037266;28;19976;-66
2023/04/04 15:31:32;;;;;;;;;;;;;;;;;;5037545;28;20022;-68
2023/04/04 15:33:59;;;;;;;;;;;;;;;;;;5037030;28;19959;-67
2023/04/04 15:36:26;;;;;;;;;;;;;;;;;;5037318;28;19994;-67
2023/04/04 15:38:52;;;;;;;;;;;;;;;;;;5037232;28;19955;-66
2023/04/04 15:41:18;;;;;;;;;;;;;;;;;;5037477;28;19955;-67
2023/04/04 15:43:44;;;;;;;;;;;;;;;;;;5036874;28;19982;-68
2023/04/04 15:46:09;;;;;;;;;;;;;;;;;;5037350;28;20427;-66
2023/04/04 15:48:35;;;;;;;;;;;;;;;;;;5036798;28;20370;-67
2023/04/04 15:51:02;;;;;;;;;;;;;;;;;;5036681;28;20089;-67
2023/04/04 15:53:28;;;;;;;;;;;;;;;;;;5036693;28;19956;-66
2023/04/04 15:55:54;;;;;;;;;;;;;;;;;;5036689;28;20020;-66
2023/04/04 15:58:20;;;;;;;;;;;;;;;;;;5036661;28;20472;-66
2023/04/04 16:00:46;;;;;;;;;;;;;;;;;;5036592;28;19959;-66
2023/04/04 16:03:12;;;;;;;;;;;;;;;;;;5035253;28;19990;-66
2023/04/04 16:05:38;;;;;;;;;;;;;;;;;;5036783;28;19982;-66
2023/04/04 16:08:04;;;;;;;;;;;;;;;;;;5036428;28;20058;-67
2023/04/04 16:10:30;;;;;;;;;;;;;;;;;;5036690;28;20407;-67
2023/04/04 16:12:56;;;;;;;;;;;;;;;;;;5035763;28;19983;-66
2023/04/04 16:15:21;;;;;;;;;;;;;;;;;;5036851;28;19955;-66
2023/04/04 16:17:47;;;;;;;;;;;;;;;;;;5036234;28;20323;-66
2023/04/04 16:20:13;;;;;;;;;;;;;;;;;;5036460;28;19997;-67
2023/04/04 16:22:39;;;;;;;;;;;;;;;;;;5036006;28;20359;-66
2023/04/04 16:25:07;;;;;;;;;;;;;;;;;;5036691;28;20373;-66
2023/04/04 16:27:33;;;;;;;;;;;;;;;;;;5036039;28;19971;-66
2023/04/04 16:29:59;;;;;;;;;;;;;;;;;;5035954;28;19972;-67
2023/04/04 16:32:25;;;;;;;;;;;;;;;;;;5036427;28;19976;-67
2023/04/04 16:34:52;;;;;;;;;;;;;;;;;;5036212;28;20004;-66
2023/04/04 16:37:17;;;;;;;;;;;;;;;;;;5035905;28;20475;-66
2023/04/04 16:39:45;;;;;;;;;;;;;;;;;;5035778;28;20045;-67
2023/04/04 16:42:11;;;;;;;;;;;;;;;;;;5036375;28;19953;-66